Time;durP1;ratioP1;P1;durP2;ratioP2;P2;SDS_P1;SDS_P2;PMS_P1;PMS_P2;Temp;Humidity;BMP_temperature;BMP_pressure;BME280_temperature;BME280_humidity;BME280_pressure;Samples;Min_cycle;Max_cycle;Signal;HPM_P1;HPM_P2
2022/06/07 00:00:14;;;;;;;17.73;8.05;;;;;;;;;;5015277;28;20092;-82
2022/06/07 00:02:40;;;;;;;15.75;7.90;;;;;;;;;;5014787;28;20056;-81
2022/06/07 00:05:06;;;;;;;15.65;8.30;;;;;;;;;;5015262;28;20037;-82
2022/06/07 00:07:33;;;;;;;16.67;8.02;;;;;;;;;;4996586;28;20065;-81
2022/06/07 00:09:59;;;;;;;15.38;8.50;;;;;;;;;;5015339;28;20037;-81
2022/06/07 00:12:25;;;;;;;18.95;7.93;;;;;;;;;;5015106;28;20124;-85
2022/06/07 00:14:52;;;;;;;14.05;7.70;;;;;;;;;;5014709;28;20122;-83
2022/06/07 00:17:18;;;;;;;16.10;7.65;;;;;;;;;;5015069;28;20095;-81
2022/06/07 00:19:44;;;;;;;16.42;8.00;;;;;;;;;;5012073;28;20062;-81
2022/06/07 00:22:10;;;;;;;16.52;8.25;;;;;;;;;;4999104;28;20092;-81
2022/06/07 00:24:36;;;;;;;14.30;7.60;;;;;;;;;;5005986;28;20381;-81
2022/06/07 00:27:03;;;;;;;18.38;8.57;;;;;;;;;;5008365;28;20045;-81
2022/06/07 00:29:29;;;;;;;18.02;7.95;;;;;;;;;;4999663;28;20040;-80
2022/06/07 00:31:55;;;;;;;17.30;8.77;;;;;;;;;;5005585;28;20092;-81
2022/06/07 00:34:23;;;;;;;19.15;9.27;;;;;;;;;;5003538;28;20072;-81
2022/06/07 00:36:49;;;;;;;21.75;9.50;;;;;;;;;;5021530;28;20045;-82
2022/06/07 00:39:15;;;;;;;18.17;9.10;;;;;;;;;;5006365;28;20073;-81
2022/06/07 00:41:41;;;;;;;16.05;9.02;;;;;;;;;;5004243;28;20042;-82
2022/06/07 00:44:20;;;;;;;19.13;9.98;;;;;;;;;;5004876;28;20393;-82
2022/06/07 00:46:46;;;;;;;18.77;9.45;;;;;;;;;;4996634;28;20037;-82
2022/06/07 00:49:13;;;;;;;23.88;10.63;;;;;;;;;;4992892;28;20045;-81
2022/06/07 00:51:39;;;;;;;19.67;9.80;;;;;;;;;;5000025;28;20049;-81
2022/06/07 00:54:06;;;;;;;17.98;9.10;;;;;;;;;;4998184;28;20045;-80
2022/06/07 00:56:32;;;;;;;17.63;9.43;;;;;;;;;;5024285;28;20323;-80
2022/06/07 00:59:03;;;;;;;16.02;8.40;;;;;;;;;;4995781;28;20049;-81
2022/06/07 01:01:30;;;;;;;15.18;8.20;;;;;;;;;;4982307;28;20052;-81
2022/06/07 01:03:56;;;;;;;14.23;8.15;;;;;;;;;;4999969;28;20034;-80
2022/06/07 01:11:52;;;;;;;14.15;8.25;;;;;;;;;;5001820;28;20054;-81
2022/06/07 01:14:18;;;;;;;13.40;7.78;;;;;;;;;;5000244;28;20080;-81
2022/06/07 01:16:44;;;;;;;15.32;7.55;;;;;;;;;;4987203;28;20042;-80
2022/06/07 01:19:10;;;;;;;12.23;6.93;;;;;;;;;;5003217;28;20417;-81
2022/06/07 01:21:38;;;;;;;11.05;6.40;;;;;;;;;;5011619;28;20136;-81
2022/06/07 01:24:05;;;;;;;11.38;6.93;;;;;;;;;;5014136;28;20044;-82
2022/06/07 01:26:31;;;;;;;11.25;6.50;;;;;;;;;;5014033;28;20044;-79
2022/06/07 01:28:57;;;;;;;12.95;6.93;;;;;;;;;;5012319;28;20095;-80
2022/06/07 01:31:23;;;;;;;17.25;6.80;;;;;;;;;;5013493;28;20063;-78
2022/06/07 01:33:49;;;;;;;11.35;6.85;;;;;;;;;;5014249;28;20045;-78
2022/06/07 01:36:17;;;;;;;12.90;7.60;;;;;;;;;;5014183;28;20510;-79
2022/06/07 01:41:53;;;;;;;14.45;7.85;;;;;;;;;;5014695;28;20049;-77
2022/06/07 01:44:16;;;;;;;15.27;7.72;;;;;;;;;;5029253;28;20124;-81
2022/06/07 01:46:43;;;;;;;15.77;7.88;;;;;;;;;;5013926;28;20408;-79
2022/06/07 01:49:09;;;;;;;11.30;7.13;;;;;;;;;;5013426;28;20885;-78
2022/06/07 01:51:35;;;;;;;14.07;7.40;;;;;;;;;;5022684;28;20064;-79
2022/06/07 01:54:01;;;;;;;16.13;8.05;;;;;;;;;;5013523;28;20134;-80
2022/06/07 01:56:27;;;;;;;15.00;7.95;;;;;;;;;;5013562;28;20037;-80
2022/06/07 01:58:53;;;;;;;16.30;7.97;;;;;;;;;;5012972;28;20543;-79
2022/06/07 02:01:19;;;;;;;13.57;8.05;;;;;;;;;;5010098;28;20516;-78
2022/06/07 02:03:45;;;;;;;14.18;7.63;;;;;;;;;;5019089;28;20041;-80
2022/06/07 02:06:12;;;;;;;14.32;7.93;;;;;;;;;;5008766;28;20037;-78
2022/06/07 02:08:40;;;;;;;13.95;8.25;;;;;;;;;;5011393;28;20052;-78
2022/06/07 02:11:11;;;;;;;13.55;7.18;;;;;;;;;;5027139;28;20045;-79
2022/06/07 02:13:38;;;;;;;14.57;7.78;;;;;;;;;;5012311;28;20045;-80
2022/06/07 02:16:04;;;;;;;15.82;7.97;;;;;;;;;;5010841;28;20095;-80
2022/06/07 02:18:31;;;;;;;17.40;8.00;;;;;;;;;;4982613;28;20038;-80
2022/06/07 02:20:59;;;;;;;11.95;7.50;;;;;;;;;;5032291;28;20400;-79
2022/06/07 02:23:26;;;;;;;17.23;8.32;;;;;;;;;;5022026;28;20112;-85
2022/06/07 02:25:54;;;;;;;14.55;7.95;;;;;;;;;;5010275;28;20508;-79
2022/06/07 02:28:23;;;;;;;14.80;7.70;;;;;;;;;;5006355;28;20049;-80
2022/06/07 02:30:49;;;;;;;12.07;8.05;;;;;;;;;;5009363;28;20057;-80
2022/06/07 02:33:15;;;;;;;14.82;8.75;;;;;;;;;;5008401;28;20393;-82
2022/06/07 02:35:43;;;;;;;15.15;8.20;;;;;;;;;;5036234;28;20378;-78
2022/06/07 02:38:09;;;;;;;15.95;8.23;;;;;;;;;;5007541;28;20037;-80
2022/06/07 02:40:36;;;;;;;19.83;9.25;;;;;;;;;;5031731;28;20038;-80
2022/06/07 02:43:03;;;;;;;14.25;8.50;;;;;;;;;;4993319;28;20037;-79
2022/06/07 02:45:29;;;;;;;18.60;8.90;;;;;;;;;;5008521;28;20040;-80
2022/06/07 02:47:55;;;;;;;15.80;7.97;;;;;;;;;;5009818;28;20091;-78
2022/06/07 02:50:22;;;;;;;15.93;8.55;;;;;;;;;;5011468;28;20073;-79
2022/06/07 02:52:48;;;;;;;15.80;8.85;;;;;;;;;;5012784;28;20373;-79
2022/06/07 02:55:14;;;;;;;14.45;8.40;;;;;;;;;;5011316;28;20041;-79
2022/06/07 02:57:41;;;;;;;11.95;8.43;;;;;;;;;;5016750;28;20060;-78
2022/06/07 03:00:08;;;;;;;15.88;8.80;;;;;;;;;;5028221;28;20045;-76
2022/06/07 03:02:34;;;;;;;17.70;8.90;;;;;;;;;;5019627;28;20080;-80
2022/06/07 03:05:00;;;;;;;18.08;9.45;;;;;;;;;;5012592;28;20038;-79
2022/06/07 03:07:26;;;;;;;17.02;8.75;;;;;;;;;;5011951;28;20044;-78
2022/06/07 03:09:52;;;;;;;17.90;9.30;;;;;;;;;;5028589;28;20037;-77
2022/06/07 03:12:18;;;;;;;16.40;9.80;;;;;;;;;;5012117;28;20045;-80
2022/06/07 03:14:44;;;;;;;14.57;8.93;;;;;;;;;;5011823;28;20124;-79
2022/06/07 03:17:10;;;;;;;16.10;8.70;;;;;;;;;;4980415;28;20041;-80
2022/06/07 03:19:36;;;;;;;18.83;8.98;;;;;;;;;;5011853;28;20041;-79
2022/06/07 03:22:03;;;;;;;18.38;9.30;;;;;;;;;;4991260;28;20375;-79
2022/06/07 03:24:29;;;;;;;15.85;9.38;;;;;;;;;;4992125;28;20481;-76
2022/06/07 03:26:56;;;;;;;13.90;9.15;;;;;;;;;;4991989;28;20041;-80
2022/06/07 03:29:22;;;;;;;14.63;9.35;;;;;;;;;;4991850;28;20038;-78
2022/06/07 03:31:48;;;;;;;14.82;8.98;;;;;;;;;;4992341;28;20564;-78
2022/06/07 03:34:14;;;;;;;15.88;9.30;;;;;;;;;;4992187;28;20037;-78
2022/06/07 03:36:40;;;;;;;16.58;10.00;;;;;;;;;;4992383;28;20045;-78
2022/06/07 03:39:08;;;;;;;14.68;9.68;;;;;;;;;;4992114;28;20045;-78
2022/06/07 03:41:34;;;;;;;16.35;9.77;;;;;;;;;;4992217;28;20042;-77
2022/06/07 03:44:00;;;;;;;15.73;9.85;;;;;;;;;;4990460;28;20512;-80
2022/06/07 03:46:27;;;;;;;16.13;9.70;;;;;;;;;;4991818;28;20034;-80
2022/06/07 03:48:54;;;;;;;20.98;10.15;;;;;;;;;;4991638;28;20095;-79
2022/06/07 03:51:22;;;;;;;16.77;9.65;;;;;;;;;;4992203;28;20512;-79
2022/06/07 03:53:48;;;;;;;14.55;8.90;;;;;;;;;;4990972;28;20069;-79
2022/06/07 03:56:15;;;;;;;15.43;9.38;;;;;;;;;;4991786;28;20045;-79
2022/06/07 03:58:41;;;;;;;14.77;10.27;;;;;;;;;;4991954;28;20377;-80
2022/06/07 04:01:09;;;;;;;18.73;9.68;;;;;;;;;;4989414;28;20077;-80
2022/06/07 04:03:35;;;;;;;17.10;9.32;;;;;;;;;;4990193;28;20097;-78
2022/06/07 04:06:01;;;;;;;13.70;9.15;;;;;;;;;;4989398;28;20096;-78
2022/06/07 04:08:27;;;;;;;16.52;10.18;;;;;;;;;;4989500;28;20041;-80
2022/06/07 04:10:55;;;;;;;19.23;10.18;;;;;;;;;;4991081;28;20045;-78
2022/06/07 04:13:22;;;;;;;19.17;10.82;;;;;;;;;;4990248;28;20124;-80
2022/06/07 04:15:48;;;;;;;17.75;10.80;;;;;;;;;;4987894;28;20494;-79
2022/06/07 04:18:15;;;;;;;16.88;10.77;;;;;;;;;;4989024;28;20048;-77
2022/06/07 04:20:41;;;;;;;19.63;10.77;;;;;;;;;;4988068;28;20528;-78
2022/06/07 04:23:08;;;;;;;16.33;10.95;;;;;;;;;;4990114;28;20123;-79
2022/06/07 04:25:34;;;;;;;18.75;10.68;;;;;;;;;;4991364;28;20120;-77
2022/06/07 04:28:00;;;;;;;20.35;10.95;;;;;;;;;;4993075;28;20036;-79
2022/06/07 04:30:28;;;;;;;19.80;11.20;;;;;;;;;;4993862;28;20054;-77
2022/06/07 04:32:54;;;;;;;20.23;11.00;;;;;;;;;;4987952;28;20489;-79
2022/06/07 04:35:21;;;;;;;22.27;11.25;;;;;;;;;;4992995;28;20054;-80
2022/06/07 04:37:47;;;;;;;22.60;11.55;;;;;;;;;;4993346;28;20041;-77
2022/06/07 04:40:14;;;;;;;19.63;10.73;;;;;;;;;;4993936;28;20042;-81
2022/06/07 04:42:41;;;;;;;22.02;11.98;;;;;;;;;;4993342;28;20080;-78
2022/06/07 04:45:11;;;;;;;17.10;10.38;;;;;;;;;;4991700;28;20038;-77
2022/06/07 04:47:38;;;;;;;18.02;11.38;;;;;;;;;;4976240;28;20132;-77
2022/06/07 04:50:05;;;;;;;17.35;10.52;;;;;;;;;;4990845;28;20069;-80
2022/06/07 04:52:31;;;;;;;16.63;11.02;;;;;;;;;;4990014;28;20034;-79
2022/06/07 04:54:57;;;;;;;17.25;10.18;;;;;;;;;;4992149;28;20113;-80
2022/06/07 04:57:24;;;;;;;17.52;10.13;;;;;;;;;;4995362;28;20432;-77
2022/06/07 04:59:50;;;;;;;20.33;10.65;;;;;;;;;;4994477;28;20497;-77
2022/06/07 05:02:16;;;;;;;17.13;9.68;;;;;;;;;;4993411;28;20600;-78
2022/06/07 05:04:42;;;;;;;17.67;10.98;;;;;;;;;;4995262;28;20551;-80
2022/06/07 05:07:08;;;;;;;18.00;10.63;;;;;;;;;;4993188;28;20034;-78
2022/06/07 05:09:34;;;;;;;18.92;10.65;;;;;;;;;;4994373;28;20129;-77
2022/06/07 05:12:00;;;;;;;17.70;10.25;;;;;;;;;;4978761;28;20187;-78
2022/06/07 05:14:27;;;;;;;16.33;8.80;;;;;;;;;;5011750;28;20042;-78
2022/06/07 05:16:53;;;;;;;16.17;9.18;;;;;;;;;;5018452;28;20042;-78
2022/06/07 05:19:19;;;;;;;15.82;8.55;;;;;;;;;;4993219;28;20038;-78
2022/06/07 05:21:46;;;;;;;14.50;8.15;;;;;;;;;;5026068;28;20563;-79
2022/06/07 05:24:12;;;;;;;18.77;8.40;;;;;;;;;;5012485;28;20477;-78
2022/06/07 05:26:49;;;;;;;16.88;8.10;;;;;;;;;;5012294;28;20049;-77
2022/06/07 05:29:24;;;;;;;13.45;7.50;;;;;;;;;;5011987;28;20112;-78
2022/06/07 05:31:50;;;;;;;17.02;7.10;;;;;;;;;;5013660;28;20095;-78
2022/06/07 05:34:17;;;;;;;19.85;7.43;;;;;;;;;;5013617;28;20045;-78
2022/06/07 05:36:43;;;;;;;13.05;6.80;;;;;;;;;;5029771;28;20041;-78
2022/06/07 05:39:18;;;;;;;16.23;6.85;;;;;;;;;;5012912;28;20052;-78
2022/06/07 05:41:45;;;;;;;16.30;7.95;;;;;;;;;;5011828;28;20037;-79
2022/06/07 05:44:11;;;;;;;14.10;7.70;;;;;;;;;;5009556;28;20078;-79
2022/06/07 05:46:37;;;;;;;14.20;8.18;;;;;;;;;;5011435;28;20034;-78
2022/06/07 05:49:03;;;;;;;14.55;8.20;;;;;;;;;;5009542;28;20087;-78
2022/06/07 05:51:29;;;;;;;15.45;8.57;;;;;;;;;;5009930;28;20446;-78
2022/06/07 05:53:56;;;;;;;18.00;8.40;;;;;;;;;;5009242;28;20041;-79
2022/06/07 05:56:22;;;;;;;18.40;8.50;;;;;;;;;;5013835;28;20045;-79
2022/06/07 05:58:48;;;;;;;19.50;8.80;;;;;;;;;;5011326;28;20049;-79
2022/06/07 06:01:15;;;;;;;18.13;8.68;;;;;;;;;;5017644;28;20147;-80
2022/06/07 06:03:41;;;;;;;18.50;8.38;;;;;;;;;;5013355;28;20493;-80
2022/06/07 06:06:08;;;;;;;16.13;8.80;;;;;;;;;;5012309;28;20040;-79
2022/06/07 06:11:20;;;;;;;17.50;8.65;;;;;;;;;;5012027;28;20080;-79
2022/06/07 06:13:46;;;;;;;14.80;8.38;;;;;;;;;;5025036;28;20084;-79
2022/06/07 06:16:14;;;;;;;17.60;8.07;;;;;;;;;;5013160;28;20039;-82
2022/06/07 06:18:43;;;;;;;24.80;7.95;;;;;;;;;;5030461;28;20401;-78
2022/06/07 06:21:09;;;;;;;15.88;6.85;;;;;;;;;;5012741;28;20424;-80
2022/06/07 06:23:36;;;;;;;13.02;6.97;;;;;;;;;;5010731;28;20370;-81
2022/06/07 06:26:02;;;;;;;13.90;6.78;;;;;;;;;;4996412;28;20056;-81
2022/06/07 06:28:28;;;;;;;18.02;6.80;;;;;;;;;;5012881;28;20140;-79
2022/06/07 06:30:54;;;;;;;16.08;6.40;;;;;;;;;;5012545;28;20110;-82
2022/06/07 06:33:20;;;;;;;9.80;5.60;;;;;;;;;;5012631;28;20087;-83
2022/06/07 06:35:53;;;;;;;13.73;5.95;;;;;;;;;;5040656;28;20042;-82
2022/06/07 06:38:20;;;;;;;11.88;5.25;;;;;;;;;;5012702;28;20082;-80
2022/06/07 06:40:47;;;;;;;13.55;5.65;;;;;;;;;;5012544;28;20052;-80
2022/06/07 06:43:14;;;;;;;15.65;5.20;;;;;;;;;;5012818;28;20149;-80
2022/06/07 06:45:42;;;;;;;9.65;4.95;;;;;;;;;;5012601;28;20041;-81
2022/06/07 06:48:09;;;;;;;17.80;5.40;;;;;;;;;;5014565;28;20034;-79
2022/06/07 06:50:35;;;;;;;9.25;4.38;;;;;;;;;;5012235;28;20132;-78
2022/06/07 06:53:02;;;;;;;10.75;4.32;;;;;;;;;;5011327;28;20041;-79
2022/06/07 06:55:28;;;;;;;10.27;4.35;;;;;;;;;;5014118;28;20074;-81
2022/06/07 06:57:54;;;;;;;12.30;4.85;;;;;;;;;;5012562;28;20040;-80
2022/06/07 07:00:20;;;;;;;9.73;3.83;;;;;;;;;;5022569;28;20191;-79
2022/06/07 07:02:47;;;;;;;10.88;4.57;;;;;;;;;;5012594;28;20087;-81
2022/06/07 07:05:14;;;;;;;13.20;4.80;;;;;;;;;;5012398;28;20030;-80
2022/06/07 07:07:40;;;;;;;10.82;4.65;;;;;;;;;;5012299;28;20492;-80
2022/06/07 07:10:07;;;;;;;9.43;4.25;;;;;;;;;;5013328;28;20103;-81
2022/06/07 07:12:35;;;;;;;11.20;4.30;;;;;;;;;;5010410;28;20484;-81
2022/06/07 07:15:01;;;;;;;11.57;4.43;;;;;;;;;;5011940;28;20033;-79
2022/06/07 07:17:28;;;;;;;8.95;4.10;;;;;;;;;;5012217;28;20033;-78
2022/06/07 07:19:57;;;;;;;11.85;4.30;;;;;;;;;;5012567;28;20481;-79
2022/06/07 07:22:23;;;;;;;8.57;4.07;;;;;;;;;;5009435;28;20049;-79
2022/06/07 07:24:50;;;;;;;9.32;3.92;;;;;;;;;;5026045;28;20068;-78
2022/06/07 07:27:19;;;;;;;15.02;4.10;;;;;;;;;;5011962;28;20064;-78
2022/06/07 07:29:46;;;;;;;9.93;4.20;;;;;;;;;;5012050;28;20129;-79
2022/06/07 07:32:12;;;;;;;9.43;4.25;;;;;;;;;;5012135;28;20033;-86
2022/06/07 07:34:38;;;;;;;11.10;3.83;;;;;;;;;;5011902;28;20106;-80
2022/06/07 07:37:05;;;;;;;10.05;3.97;;;;;;;;;;5011722;28;20041;-77
2022/06/07 07:39:31;;;;;;;9.95;3.70;;;;;;;;;;5011958;28;20072;-82
2022/06/07 07:41:57;;;;;;;8.18;3.40;;;;;;;;;;5012083;28;20052;-80
2022/06/07 07:44:24;;;;;;;10.85;4.00;;;;;;;;;;5012238;28;20112;-85
2022/06/07 07:46:55;;;;;;;9.80;3.83;;;;;;;;;;5013335;28;20046;-79
2022/06/07 07:49:22;;;;;;;16.13;4.10;;;;;;;;;;5011676;28;20116;-84
2022/06/07 07:51:51;;;;;;;10.13;4.18;;;;;;;;;;5028634;28;20449;-84
2022/06/07 07:54:17;;;;;;;11.65;4.15;;;;;;;;;;5011133;28;20071;-86
2022/06/07 07:56:43;;;;;;;11.50;4.38;;;;;;;;;;5013024;28;20041;-84
2022/06/07 07:59:12;;;;;;;9.43;4.03;;;;;;;;;;5012139;28;20041;-83
2022/06/07 08:01:38;;;;;;;10.98;4.22;;;;;;;;;;5015968;28;20048;-83
2022/06/07 08:04:05;;;;;;;15.07;5.20;;;;;;;;;;5045356;28;20049;-82
2022/06/07 08:06:32;;;;;;;11.27;4.80;;;;;;;;;;5027137;28;20033;-81
2022/06/07 08:08:59;;;;;;;11.90;4.82;;;;;;;;;;5016218;28;20501;-78
2022/06/07 08:11:30;;;;;;;10.00;4.63;;;;;;;;;;5016169;28;20489;-80
2022/06/07 08:13:56;;;;;;;9.93;4.53;;;;;;;;;;5015452;28;20083;-79
2022/06/07 08:16:23;;;;;;;13.07;5.00;;;;;;;;;;5015240;28;20037;-79
2022/06/07 08:18:50;;;;;;;10.07;4.75;;;;;;;;;;5025135;28;20065;-81
2022/06/07 08:21:20;;;;;;;13.38;5.00;;;;;;;;;;5011729;28;20045;-80
2022/06/07 08:23:47;;;;;;;12.02;5.68;;;;;;;;;;5026559;28;20095;-79
2022/06/07 08:26:13;;;;;;;10.90;4.97;;;;;;;;;;5016073;28;20116;-82
2022/06/07 08:28:40;;;;;;;12.85;5.15;;;;;;;;;;5027372;28;20041;-80
2022/06/07 08:31:11;;;;;;;11.95;5.40;;;;;;;;;;5013961;28;20109;-80
2022/06/07 08:39:06;;;;;;;11.18;4.82;;;;;;;;;;5013047;28;20152;-79
2022/06/07 08:41:34;;;;;;;12.57;4.90;;;;;;;;;;5014582;28;20556;-81
2022/06/07 08:44:07;;;;;;;12.43;5.13;;;;;;;;;;5014478;28;20037;-81
2022/06/07 08:46:35;;;;;;;10.52;4.35;;;;;;;;;;5014366;28;20056;-80
2022/06/07 08:49:01;;;;;;;11.15;4.65;;;;;;;;;;5011539;28;20448;-80
2022/06/07 08:51:29;;;;;;;10.88;5.20;;;;;;;;;;5014495;28;20388;-82
2022/06/07 08:53:59;;;;;;;8.55;3.10;;;;;;;;;;5013775;28;20037;-79
2022/06/07 08:56:32;;;;;;;10.25;2.33;;;;;;;;;;5014758;28;20453;-80
2022/06/07 08:59:00;;;;;;;7.47;2.30;;;;;;;;;;5026960;28;20076;-81
2022/06/07 09:01:33;;;;;;;8.23;2.40;;;;;;;;;;5013246;28;20053;-81
2022/06/07 09:04:05;;;;;;;4.63;2.10;;;;;;;;;;5013718;28;20558;-79
2022/06/07 09:06:36;;;;;;;10.77;2.70;;;;;;;;;;5014088;28;20039;-80
2022/06/07 09:09:03;;;;;;;7.55;2.10;;;;;;;;;;5040379;28;20503;-84
2022/06/07 09:14:35;;;;;;;8.43;2.28;;;;;;;;;;5030245;28;20044;-80
2022/06/07 09:17:05;;;;;;;8.35;2.30;;;;;;;;;;5021676;28;20099;-82
2022/06/07 09:19:32;;;;;;;8.57;2.10;;;;;;;;;;5011746;28;20053;-82
2022/06/07 09:22:01;;;;;;;4.90;1.83;;;;;;;;;;5013640;28;20065;-79
2022/06/07 09:24:30;;;;;;;3.90;1.55;;;;;;;;;;5013767;28;20045;-79
2022/06/07 09:27:04;;;;;;;3.85;1.42;;;;;;;;;;5014431;28;20388;-81
2022/06/07 09:29:34;;;;;;;4.45;1.40;;;;;;;;;;5013563;28;20045;-79
2022/06/07 09:32:00;;;;;;;5.15;1.50;;;;;;;;;;5012616;28;20489;-81
2022/06/07 09:34:28;;;;;;;4.57;1.42;;;;;;;;;;5031690;28;20112;-80
2022/06/07 09:36:57;;;;;;;7.18;1.55;;;;;;;;;;5013737;28;20049;-80
2022/06/07 09:39:29;;;;;;;3.53;1.40;;;;;;;;;;5013917;28;20041;-80
2022/06/07 09:42:00;;;;;;;5.15;1.50;;;;;;;;;;5013435;28;20040;-80
2022/06/07 09:44:35;;;;;;;6.63;1.80;;;;;;;;;;5013425;28;20116;-81
2022/06/07 09:47:02;;;;;;;4.43;1.50;;;;;;;;;;5013178;28;20037;-81
2022/06/07 09:49:31;;;;;;;5.30;1.58;;;;;;;;;;5012933;28;20080;-80
2022/06/07 09:52:03;;;;;;;4.72;1.48;;;;;;;;;;5014026;28;20124;-80
2022/06/07 09:54:29;;;;;;;4.18;1.42;;;;;;;;;;5012595;28;20049;-81
2022/06/07 09:56:56;;;;;;;4.78;1.63;;;;;;;;;;5012973;28;20045;-82
2022/06/07 09:59:37;;;;;;;7.25;1.65;;;;;;;;;;5013908;28;20103;-82
2022/06/07 10:02:04;;;;;;;6.05;1.67;;;;;;;;;;5011764;28;20453;-79
2022/06/07 10:04:53;;;;;;;6.20;1.67;;;;;;;;;;5013399;28;20048;-80
2022/06/07 10:07:26;;;;;;;5.25;1.20;;;;;;;;;;5002228;28;20147;-80
2022/06/07 10:10:12;;;;;;;5.45;1.38;;;;;;;;;;5013494;28;20553;-82
2022/06/07 10:12:38;;;;;;;3.38;1.30;;;;;;;;;;5011860;28;20049;-82
2022/06/07 10:15:22;;;;;;;7.72;1.40;;;;;;;;;;5012562;28;20084;-81
2022/06/07 10:17:58;;;;;;;6.72;1.55;;;;;;;;;;5010800;28;20045;-80
2022/06/07 10:20:33;;;;;;;6.72;1.50;;;;;;;;;;5005140;28;20050;-82
2022/06/07 10:23:12;;;;;;;6.38;1.77;;;;;;;;;;5000794;28;20045;-83
2022/06/07 10:25:58;;;;;;;6.05;2.00;;;;;;;;;;4995682;28;20124;-80
2022/06/07 10:28:32;;;;;;;6.20;1.85;;;;;;;;;;4994452;28;20843;-82
2022/06/07 10:31:16;;;;;;;5.78;1.50;;;;;;;;;;4994057;28;20104;-83
2022/06/07 10:33:42;;;;;;;4.78;1.60;;;;;;;;;;5004535;28;20103;-80
2022/06/07 10:36:27;;;;;;;5.60;1.60;;;;;;;;;;5001317;28;20037;-84
2022/06/07 10:38:59;;;;;;;7.18;2.00;;;;;;;;;;4994023;28;20038;-81
2022/06/07 10:41:28;;;;;;;5.43;1.90;;;;;;;;;;5001293;28;20508;-83
2022/06/07 10:44:03;;;;;;;6.45;2.03;;;;;;;;;;5003178;28;20239;-87
2022/06/07 10:46:30;;;;;;;5.03;1.77;;;;;;;;;;4997096;28;20037;-83
2022/06/07 10:48:56;;;;;;;3.72;1.65;;;;;;;;;;5003255;28;20050;-80
2022/06/07 10:54:20;;;;;;;5.35;1.63;;;;;;;;;;5000180;28;20045;-80
2022/06/07 10:56:50;;;;;;;6.88;1.73;;;;;;;;;;5006884;28;20064;-80
2022/06/07 10:59:19;;;;;;;4.40;1.80;;;;;;;;;;5000314;28;20397;-82
2022/06/07 11:01:48;;;;;;;3.92;1.70;;;;;;;;;;4996091;28;20033;-83
2022/06/07 11:10:07;;;;;;;4.47;1.70;;;;;;;;;;5002621;28;20434;-80
2022/06/07 11:12:43;;;;;;;6.00;2.05;;;;;;;;;;5003183;28;20037;-81
2022/06/07 11:15:10;;;;;;;7.63;2.17;;;;;;;;;;4999892;28;20050;-80
2022/06/07 11:17:45;;;;;;;4.25;1.75;;;;;;;;;;5000141;28;20042;-79
2022/06/07 11:20:23;;;;;;;5.68;1.70;;;;;;;;;;5006249;28;20398;-81
2022/06/07 11:23:02;;;;;;;4.40;2.05;;;;;;;;;;5001844;28;20045;-83
2022/06/07 11:25:39;;;;;;;7.47;2.03;;;;;;;;;;4989403;28;20038;-79
2022/06/07 11:28:09;;;;;;;5.85;1.85;;;;;;;;;;5004552;28;20482;-81
2022/06/07 11:30:37;;;;;;;7.65;3.05;;;;;;;;;;4997214;28;20077;-82
2022/06/07 11:33:06;;;;;;;3.67;1.80;;;;;;;;;;5004213;28;20041;-82
2022/06/07 11:35:42;;;;;;;5.38;2.10;;;;;;;;;;4994860;28;20042;-81
2022/06/07 11:38:22;;;;;;;5.32;2.22;;;;;;;;;;4996882;28;20041;-80
2022/06/07 11:40:49;;;;;;;6.15;2.30;;;;;;;;;;4991768;28;20041;-80
2022/06/07 11:43:34;;;;;;;6.15;2.40;;;;;;;;;;5002023;28;20494;-81
2022/06/07 11:46:00;;;;;;;7.47;2.83;;;;;;;;;;4995339;28;20132;-81
2022/06/07 11:48:36;;;;;;;6.93;2.80;;;;;;;;;;4998148;28;20042;-79
2022/06/07 11:51:03;;;;;;;;;;;;;;;;;;5000193;28;20042;-79
2022/06/07 11:53:33;;;;;;;7.82;3.25;;;;;;;;;;5005038;28;19921;-80
2022/06/07 11:56:03;;;;;;;7.75;3.30;;;;;;;;;;5005802;28;20354;-79
2022/06/07 11:59:02;;;;;;;8.43;3.10;;;;;;;;;;5000825;28;20046;-79
2022/06/07 12:01:36;;;;;;;9.90;3.92;;;;;;;;;;4962709;28;20046;-80
2022/06/07 12:04:06;;;;;;;12.65;3.53;;;;;;;;;;5006556;28;20560;-80
2022/06/07 12:06:34;;;;;;;11.93;3.20;;;;;;;;;;5000090;28;20037;-79
2022/06/07 12:09:02;;;;;;;10.25;3.95;;;;;;;;;;5006716;28;20045;-85
2022/06/07 12:11:32;;;;;;;10.93;3.70;;;;;;;;;;5003505;28;20029;-78
2022/06/07 12:14:23;;;;;;;11.40;3.50;;;;;;;;;;5009636;28;20042;-79
2022/06/07 12:16:54;;;;;;;10.38;3.58;;;;;;;;;;5000109;28;20046;-82
2022/06/07 12:19:22;;;;;;;10.38;3.33;;;;;;;;;;4997394;28;20046;-79
2022/06/07 12:22:07;;;;;;;11.13;4.07;;;;;;;;;;5002741;28;20137;-79
2022/06/07 12:24:44;;;;;;;8.60;3.95;;;;;;;;;;5004176;28;20045;-79
2022/06/07 12:27:36;;;;;;;9.55;4.20;;;;;;;;;;4994875;28;20042;-82
2022/06/07 12:30:19;;;;;;;10.95;4.40;;;;;;;;;;4977822;28;20041;-79
2022/06/07 12:32:45;;;;;;;13.40;3.90;;;;;;;;;;4994175;28;20045;-82
2022/06/07 12:35:16;;;;;;;12.05;4.15;;;;;;;;;;5003596;28;20041;-80
2022/06/07 12:37:45;;;;;;;12.77;4.20;;;;;;;;;;5008366;28;20105;-80
2022/06/07 12:40:22;;;;;;;11.13;4.03;;;;;;;;;;5000795;28;20408;-81
2022/06/07 12:42:48;;;;;;;13.00;3.92;;;;;;;;;;5002869;28;20189;-82
2022/06/07 12:45:23;;;;;;;13.02;4.30;;;;;;;;;;5006207;28;20412;-79
2022/06/07 12:47:57;;;;;;;10.57;4.18;;;;;;;;;;4999374;28;20037;-83
2022/06/07 12:50:28;;;;;;;12.70;4.40;;;;;;;;;;5007968;28;20044;-84
2022/06/07 12:52:54;;;;;;;9.90;4.07;;;;;;;;;;5006866;28;20374;-81
2022/06/07 12:55:25;;;;;;;14.68;4.30;;;;;;;;;;5002074;28;20131;-81
2022/06/07 12:57:54;;;;;;;10.93;4.63;;;;;;;;;;4999143;28;20457;-81
2022/06/07 13:00:22;;;;;;;9.48;4.07;;;;;;;;;;5004730;28;20041;-81
2022/06/07 13:03:00;;;;;;;13.02;4.60;;;;;;;;;;5018493;28;20049;-81
2022/06/07 13:05:29;;;;;;;10.57;4.60;;;;;;;;;;5001692;28;20042;-81
2022/06/07 13:07:57;;;;;;;14.05;4.88;;;;;;;;;;5012224;28;20278;-81
2022/06/07 13:10:26;;;;;;;15.45;5.40;;;;;;;;;;4994201;28;20030;-81
2022/06/07 13:12:54;;;;;;;12.95;5.15;;;;;;;;;;5002480;28;20038;-81
2022/06/07 13:15:22;;;;;;;11.07;5.65;;;;;;;;;;5020583;28;20076;-81
2022/06/07 13:18:00;;;;;;;13.93;5.55;;;;;;;;;;5007863;28;20474;-80
2022/06/07 13:20:39;;;;;;;14.35;5.78;;;;;;;;;;4989045;28;20093;-81
2022/06/07 13:23:33;;;;;;;14.10;5.97;;;;;;;;;;4994336;28;20065;-82
2022/06/07 13:26:12;;;;;;;17.15;6.57;;;;;;;;;;5006588;28;20124;-81
2022/06/07 13:28:38;;;;;;;15.05;6.18;;;;;;;;;;4989705;28;20049;-81
2022/06/07 13:31:24;;;;;;;15.43;6.88;;;;;;;;;;4992833;28;20464;-81
2022/06/07 13:33:59;;;;;;;15.20;6.50;;;;;;;;;;4991170;28;20112;-81
2022/06/07 13:36:40;;;;;;;16.40;6.40;;;;;;;;;;4991959;28;20042;-82
2022/06/07 13:39:06;;;;;;;15.35;6.68;;;;;;;;;;5010682;28;20046;-81
2022/06/07 13:41:45;;;;;;;16.95;6.93;;;;;;;;;;4990947;28;20038;-80
2022/06/07 13:44:11;;;;;;;17.92;7.15;;;;;;;;;;4987586;28;20064;-86
2022/06/07 13:46:39;;;;;;;15.18;7.50;;;;;;;;;;4993438;28;20092;-86
2022/06/07 13:54:51;;;;;;;17.30;7.35;;;;;;;;;;5009006;28;20042;-81
2022/06/07 13:57:17;;;;;;;17.50;7.80;;;;;;;;;;4993200;28;20080;-83
2022/06/07 13:59:43;;;;;;;23.70;7.53;;;;;;;;;;4978220;28;20447;-85
2022/06/07 14:02:11;;;;;;;15.60;6.88;;;;;;;;;;4993756;28;20056;-81
2022/06/07 14:04:37;;;;;;;13.63;6.88;;;;;;;;;;5010036;28;20042;-81
2022/06/07 14:07:07;;;;;;;14.65;6.68;;;;;;;;;;4990052;28;20504;-82
2022/06/07 14:09:33;;;;;;;14.95;6.13;;;;;;;;;;4992040;28;20081;-82
2022/06/07 14:12:00;;;;;;;13.48;6.95;;;;;;;;;;4992525;28;20470;-80
2022/06/07 14:14:26;;;;;;;15.05;6.60;;;;;;;;;;5009445;28;20050;-81
2022/06/07 14:17:01;;;;;;;15.48;6.30;;;;;;;;;;4989501;28;20046;-82
2022/06/07 14:19:29;;;;;;;16.90;7.05;;;;;;;;;;5016719;28;20038;-84
2022/06/07 14:21:56;;;;;;;12.05;5.78;;;;;;;;;;5010192;28;20060;-83
2022/06/07 14:24:24;;;;;;;13.82;6.30;;;;;;;;;;5016752;28;20049;-81
2022/06/07 14:26:50;;;;;;;9.90;4.78;;;;;;;;;;5015251;28;20088;-83
2022/06/07 14:29:16;;;;;;;11.15;4.60;;;;;;;;;;5023380;28;20034;-83
2022/06/07 14:31:43;;;;;;;12.63;5.45;;;;;;;;;;5013286;28;20045;-84
2022/06/07 14:34:17;;;;;;;10.30;4.72;;;;;;;;;;5011571;28;20072;-81
2022/06/07 14:36:43;;;;;;;11.73;5.57;;;;;;;;;;5022556;28;20122;-83
2022/06/07 14:39:17;;;;;;;11.25;4.95;;;;;;;;;;5014787;28;20120;-83
2022/06/07 14:41:44;;;;;;;13.13;5.68;;;;;;;;;;5014021;28;20481;-80
2022/06/07 14:47:36;;;;;;;12.90;5.50;;;;;;;;;;4852135;23;8085420;-72
2022/06/07 14:50:02;;;;;;;13.00;5.70;;;;;;;;;;5000519;23;20810;-73
2022/06/07 14:52:28;;;;;;;11.63;6.05;;;;;;;;;;5004725;28;20509;-73
2022/06/07 14:54:54;;;;;;;13.15;6.10;;;;;;;;;;5011124;28;20392;-73
2022/06/07 14:57:27;;;;;;;16.20;5.85;;;;;;;;;;4994671;28;20436;-73
2022/06/07 14:59:53;;;;;;;12.02;6.07;;;;;;;;;;5010790;28;20041;-73
2022/06/07 15:02:24;;;;;;;13.57;5.93;;;;;;;;;;5010918;28;20042;-72
2022/06/07 15:05:00;;;;;;;14.20;5.78;;;;;;;;;;5008938;28;20037;-73
2022/06/07 15:07:27;;;;;;;11.65;5.90;;;;;;;;;;5030943;28;20362;-73
2022/06/07 15:09:54;;;;;;;17.23;5.72;;;;;;;;;;5010518;28;20037;-71
2022/06/07 15:12:21;;;;;;;11.77;4.88;;;;;;;;;;5025895;28;20045;-71
2022/06/07 15:14:47;;;;;;;12.13;5.38;;;;;;;;;;5011177;28;20556;-71
2022/06/07 15:17:18;;;;;;;12.65;5.30;;;;;;;;;;5008152;28;20073;-72
2022/06/07 15:19:44;;;;;;;9.60;5.20;;;;;;;;;;5025385;28;20049;-71